sensor_id;sensor_type;location;lat;lon;timestamp;P1;durP1;ratioP1;P2;durP2;ratioP2
75984;SDS011;65033;44.660;37.758;2024-02-14T00:00:27;7.47;;;3.28;;
75984;SDS011;65033;44.660;37.758;2024-02-14T00:01:31;5.57;;;3.30;;
75984;SDS011;65033;44.660;37.758;2024-02-14T00:02:35;10.07;;;4.18;;
75984;SDS011;65033;44.660;37.758;2024-02-14T00:03:39;5.90;;;3.05;;
75984;SDS011;65033;44.660;37.758;2024-02-14T00:04:43;6.95;;;3.88;;
75984;SDS011;65033;44.660;37.758;2024-02-14T00:05:46;4.63;;;3.03;;
75984;SDS011;65033;44.660;37.758;2024-02-14T00:06:49;5.50;;;3.15;;
75984;SDS011;65033;44.660;37.758;2024-02-14T00:07:54;6.07;;;3.08;;
75984;SDS011;65033;44.660;37.758;2024-02-14T00:08:57;8.68;;;3.53;;
75984;SDS011;65033;44.660;37.758;2024-02-14T00:10:01;3.72;;;2.70;;
75984;SDS011;65033;44.660;37.758;2024-02-14T00:11:06;3.70;;;2.65;;
75984;SDS011;65033;44.660;37.758;2024-02-14T00:12:10;4.05;;;2.92;;
75984;SDS011;65033;44.660;37.758;2024-02-14T00:13:14;7.13;;;3.40;;
75984;SDS011;65033;44.660;37.758;2024-02-14T00:14:17;3.95;;;2.63;;
75984;SDS011;65033;44.660;37.758;2024-02-14T00:15:23;7.07;;;4.07;;
75984;SDS011;65033;44.660;37.758;2024-02-14T00:16:28;4.65;;;3.22;;
75984;SDS011;65033;44.660;37.758;2024-02-14T00:17:33;7.82;;;3.20;;
75984;SDS011;65033;44.660;37.758;2024-02-14T00:18:37;5.25;;;3.05;;
75984;SDS011;65033;44.660;37.758;2024-02-14T00:19:40;4.45;;;3.10;;
75984;SDS011;65033;44.660;37.758;2024-02-14T00:20:44;5.57;;;3.00;;
75984;SDS011;65033;44.660;37.758;2024-02-14T00:21:47;6.93;;;3.40;;
75984;SDS011;65033;44.660;37.758;2024-02-14T00:22:55;4.60;;;3.17;;
75984;SDS011;65033;44.660;37.758;2024-02-14T00:23:58;5.65;;;3.67;;
75984;SDS011;65033;44.660;37.758;2024-02-14T00:25:02;5.07;;;2.95;;
75984;SDS011;65033;44.660;37.758;2024-02-14T00:26:07;4.45;;;2.58;;
75984;SDS011;65033;44.660;37.758;2024-02-14T00:27:11;4.32;;;2.58;;
75984;SDS011;65033;44.660;37.758;2024-02-14T00:28:16;4.00;;;2.22;;
75984;SDS011;65033;44.660;37.758;2024-02-14T00:29:20;3.35;;;2.40;;
75984;SDS011;65033;44.660;37.758;2024-02-14T00:30:23;3.88;;;2.65;;
75984;SDS011;65033;44.660;37.758;2024-02-14T00:31:45;6.75;;;2.80;;
75984;SDS011;65033;44.660;37.758;2024-02-14T00:32:53;3.83;;;2.58;;
75984;SDS011;65033;44.660;37.758;2024-02-14T00:33:56;4.78;;;2.97;;
75984;SDS011;65033;44.660;37.758;2024-02-14T00:35:00;5.88;;;2.70;;
75984;SDS011;65033;44.660;37.758;2024-02-14T00:36:03;4.20;;;2.70;;
75984;SDS011;65033;44.660;37.758;2024-02-14T00:37:08;5.10;;;2.85;;
75984;SDS011;65033;44.660;37.758;2024-02-14T00:38:13;4.15;;;2.90;;
75984;SDS011;65033;44.660;37.758;2024-02-14T00:39:16;10.13;;;2.70;;
75984;SDS011;65033;44.660;37.758;2024-02-14T00:40:20;5.80;;;2.28;;
75984;SDS011;65033;44.660;37.758;2024-02-14T00:41:23;8.25;;;2.58;;
75984;SDS011;65033;44.660;37.758;2024-02-14T00:42:27;4.85;;;2.75;;
75984;SDS011;65033;44.660;37.758;2024-02-14T00:43:30;4.25;;;2.55;;
75984;SDS011;65033;44.660;37.758;2024-02-14T00:44:34;6.57;;;3.03;;
75984;SDS011;65033;44.660;37.758;2024-02-14T00:45:37;4.72;;;2.60;;
75984;SDS011;65033;44.660;37.758;2024-02-14T00:46:41;3.08;;;2.13;;
75984;SDS011;65033;44.660;37.758;2024-02-14T00:47:45;4.07;;;3.10;;
75984;SDS011;65033;44.660;37.758;2024-02-14T00:48:49;4.53;;;2.90;;
75984;SDS011;65033;44.660;37.758;2024-02-14T00:49:52;8.30;;;3.72;;
75984;SDS011;65033;44.660;37.758;2024-02-14T00:50:56;6.82;;;3.85;;
75984;SDS011;65033;44.660;37.758;2024-02-14T00:51:59;6.40;;;4.00;;
75984;SDS011;65033;44.660;37.758;2024-02-14T00:53:03;5.80;;;3.60;;
75984;SDS011;65033;44.660;37.758;2024-02-14T00:54:08;6.38;;;4.13;;
75984;SDS011;65033;44.660;37.758;2024-02-14T00:55:11;7.05;;;4.10;;
75984;SDS011;65033;44.660;37.758;2024-02-14T00:56:15;9.13;;;4.50;;
75984;SDS011;65033;44.660;37.758;2024-02-14T00:57:19;7.15;;;3.30;;
75984;SDS011;65033;44.660;37.758;2024-02-14T00:58:23;3.28;;;2.65;;
75984;SDS011;65033;44.660;37.758;2024-02-14T00:59:26;7.28;;;2.85;;
75984;SDS011;65033;44.660;37.758;2024-02-14T01:00:30;4.40;;;2.47;;
75984;SDS011;65033;44.660;37.758;2024-02-14T01:01:38;4.45;;;2.72;;
75984;SDS011;65033;44.660;37.758;2024-02-14T01:02:42;6.20;;;2.83;;
75984;SDS011;65033;44.660;37.758;2024-02-14T01:03:45;3.88;;;2.45;;
75984;SDS011;65033;44.660;37.758;2024-02-14T01:04:49;5.20;;;2.92;;
75984;SDS011;65033;44.660;37.758;2024-02-14T01:05:52;3.45;;;2.55;;
75984;SDS011;65033;44.660;37.758;2024-02-14T01:06:56;6.18;;;3.05;;
75984;SDS011;65033;44.660;37.758;2024-02-14T01:08:00;9.75;;;3.10;;
75984;SDS011;65033;44.660;37.758;2024-02-14T01:09:04;3.72;;;2.60;;
75984;SDS011;65033;44.660;37.758;2024-02-14T01:10:09;3.50;;;2.55;;
75984;SDS011;65033;44.660;37.758;2024-02-14T01:11:12;4.53;;;2.85;;
75984;SDS011;65033;44.660;37.758;2024-02-14T01:12:15;3.97;;;2.60;;
75984;SDS011;65033;44.660;37.758;2024-02-14T01:13:19;4.85;;;2.58;;
75984;SDS011;65033;44.660;37.758;2024-02-14T01:14:23;5.18;;;2.85;;
75984;SDS011;65033;44.660;37.758;2024-02-14T01:15:27;4.25;;;2.90;;
75984;SDS011;65033;44.660;37.758;2024-02-14T01:16:30;3.85;;;2.55;;
75984;SDS011;65033;44.660;37.758;2024-02-14T01:17:34;3.65;;;2.65;;
75984;SDS011;65033;44.660;37.758;2024-02-14T01:18:38;7.50;;;3.50;;
75984;SDS011;65033;44.660;37.758;2024-02-14T01:19:42;6.13;;;3.08;;
75984;SDS011;65033;44.660;37.758;2024-02-14T01:20:46;3.97;;;2.67;;
75984;SDS011;65033;44.660;37.758;2024-02-14T01:21:49;5.13;;;2.63;;
75984;SDS011;65033;44.660;37.758;2024-02-14T01:22:53;4.55;;;2.85;;
75984;SDS011;65033;44.660;37.758;2024-02-14T01:23:59;4.25;;;2.83;;
75984;SDS011;65033;44.660;37.758;2024-02-14T01:25:03;5.80;;;2.58;;
75984;SDS011;65033;44.660;37.758;2024-02-14T01:26:08;6.32;;;3.65;;
75984;SDS011;65033;44.660;37.758;2024-02-14T01:27:12;3.67;;;2.72;;
75984;SDS011;65033;44.660;37.758;2024-02-14T01:28:16;3.83;;;2.55;;
75984;SDS011;65033;44.660;37.758;2024-02-14T01:29:19;5.78;;;3.58;;
75984;SDS011;65033;44.660;37.758;2024-02-14T01:30:23;4.38;;;2.80;;
75984;SDS011;65033;44.660;37.758;2024-02-14T01:31:27;8.00;;;3.17;;
75984;SDS011;65033;44.660;37.758;2024-02-14T01:32:31;9.25;;;5.28;;
75984;SDS011;65033;44.660;37.758;2024-02-14T01:33:35;8.27;;;3.80;;
75984;SDS011;65033;44.660;37.758;2024-02-14T01:34:38;6.70;;;3.22;;
75984;SDS011;65033;44.660;37.758;2024-02-14T01:35:42;6.40;;;3.45;;
75984;SDS011;65033;44.660;37.758;2024-02-14T01:36:46;8.50;;;4.10;;
75984;SDS011;65033;44.660;37.758;2024-02-14T01:37:51;7.40;;;3.95;;
75984;SDS011;65033;44.660;37.758;2024-02-14T01:38:55;7.25;;;3.30;;
75984;SDS011;65033;44.660;37.758;2024-02-14T01:39:58;10.75;;;4.82;;
75984;SDS011;65033;44.660;37.758;2024-02-14T01:41:02;5.57;;;3.20;;
75984;SDS011;65033;44.660;37.758;2024-02-14T01:42:07;5.50;;;3.58;;
75984;SDS011;65033;44.660;37.758;2024-02-14T01:43:11;6.05;;;3.75;;
75984;SDS011;65033;44.660;37.758;2024-02-14T01:44:17;7.13;;;4.05;;
75984;SDS011;65033;44.660;37.758;2024-02-14T01:45:20;8.85;;;4.53;;
75984;SDS011;65033;44.660;37.758;2024-02-14T01:46:34;4.07;;;2.83;;
75984;SDS011;65033;44.660;37.758;2024-02-14T01:47:37;10.18;;;3.25;;
75984;SDS011;65033;44.660;37.758;2024-02-14T01:48:44;3.85;;;2.63;;
75984;SDS011;65033;44.660;37.758;2024-02-14T01:49:47;5.30;;;3.13;;
75984;SDS011;65033;44.660;37.758;2024-02-14T01:50:51;5.40;;;2.67;;
75984;SDS011;65033;44.660;37.758;2024-02-14T01:51:55;3.97;;;2.65;;
75984;SDS011;65033;44.660;37.758;2024-02-14T01:53:01;7.15;;;2.45;;
75984;SDS011;65033;44.660;37.758;2024-02-14T01:54:06;3.20;;;2.45;;
75984;SDS011;65033;44.660;37.758;2024-02-14T01:55:10;6.13;;;2.78;;
75984;SDS011;65033;44.660;37.758;2024-02-14T01:56:15;3.50;;;2.45;;
75984;SDS011;65033;44.660;37.758;2024-02-14T01:57:21;3.03;;;2.17;;
75984;SDS011;65033;44.660;37.758;2024-02-14T01:58:25;3.08;;;2.47;;
75984;SDS011;65033;44.660;37.758;2024-02-14T01:59:29;5.43;;;2.60;;
75984;SDS011;65033;44.660;37.758;2024-02-14T02:00:33;5.28;;;3.22;;
75984;SDS011;65033;44.660;37.758;2024-02-14T02:01:44;4.72;;;2.80;;
75984;SDS011;65033;44.660;37.758;2024-02-14T02:02:47;2.88;;;2.13;;
75984;SDS011;65033;44.660;37.758;2024-02-14T02:03:54;5.53;;;2.53;;
75984;SDS011;65033;44.660;37.758;2024-02-14T02:04:58;5.22;;;2.78;;
75984;SDS011;65033;44.660;37.758;2024-02-14T02:06:01;4.97;;;2.42;;
75984;SDS011;65033;44.660;37.758;2024-02-14T02:07:05;5.28;;;3.20;;
75984;SDS011;65033;44.660;37.758;2024-02-14T02:08:10;3.80;;;2.60;;
75984;SDS011;65033;44.660;37.758;2024-02-14T02:09:13;5.55;;;2.50;;
75984;SDS011;65033;44.660;37.758;2024-02-14T02:10:17;3.50;;;2.47;;
75984;SDS011;65033;44.660;37.758;2024-02-14T02:11:45;6.80;;;2.92;;
75984;SDS011;65033;44.660;37.758;2024-02-14T02:13:12;4.47;;;2.72;;
75984;SDS011;65033;44.660;37.758;2024-02-14T02:14:38;6.75;;;2.88;;
75984;SDS011;65033;44.660;37.758;2024-02-14T02:16:03;4.82;;;2.75;;
75984;SDS011;65033;44.660;37.758;2024-02-14T02:17:27;9.77;;;3.47;;
75984;SDS011;65033;44.660;37.758;2024-02-14T02:18:51;4.75;;;2.75;;
75984;SDS011;65033;44.660;37.758;2024-02-14T02:20:15;5.63;;;3.22;;
75984;SDS011;65033;44.660;37.758;2024-02-14T02:21:19;3.67;;;2.75;;
75984;SDS011;65033;44.660;37.758;2024-02-14T02:22:26;5.72;;;2.85;;
75984;SDS011;65033;44.660;37.758;2024-02-14T02:23:52;4.97;;;2.83;;
75984;SDS011;65033;44.660;37.758;2024-02-14T02:24:55;7.50;;;4.22;;
75984;SDS011;65033;44.660;37.758;2024-02-14T02:25:59;8.55;;;3.70;;
75984;SDS011;65033;44.660;37.758;2024-02-14T02:27:22;5.25;;;2.30;;
75984;SDS011;65033;44.660;37.758;2024-02-14T02:28:44;6.18;;;3.10;;
75984;SDS011;65033;44.660;37.758;2024-02-14T02:29:48;5.30;;;3.30;;
75984;SDS011;65033;44.660;37.758;2024-02-14T02:30:52;7.20;;;3.78;;
75984;SDS011;65033;44.660;37.758;2024-02-14T02:31:56;6.45;;;3.00;;
75984;SDS011;65033;44.660;37.758;2024-02-14T02:33:00;5.63;;;2.55;;
75984;SDS011;65033;44.660;37.758;2024-02-14T02:34:05;7.82;;;3.28;;
75984;SDS011;65033;44.660;37.758;2024-02-14T02:35:09;7.72;;;3.63;;
75984;SDS011;65033;44.660;37.758;2024-02-14T02:36:32;5.13;;;3.47;;
75984;SDS011;65033;44.660;37.758;2024-02-14T02:37:55;13.25;;;4.35;;
75984;SDS011;65033;44.660;37.758;2024-02-14T02:40:41;8.10;;;3.25;;
75984;SDS011;65033;44.660;37.758;2024-02-14T02:42:05;7.28;;;4.68;;
75984;SDS011;65033;44.660;37.758;2024-02-14T02:43:31;6.30;;;3.58;;
75984;SDS011;65033;44.660;37.758;2024-02-14T02:44:55;8.18;;;4.63;;
75984;SDS011;65033;44.660;37.758;2024-02-14T02:46:21;9.35;;;3.85;;
75984;SDS011;65033;44.660;37.758;2024-02-14T02:47:45;5.63;;;3.58;;
75984;SDS011;65033;44.660;37.758;2024-02-14T02:49:10;5.88;;;3.40;;
75984;SDS011;65033;44.660;37.758;2024-02-14T02:50:20;9.38;;;3.63;;
75984;SDS011;65033;44.660;37.758;2024-02-14T02:51:44;6.82;;;3.67;;
75984;SDS011;65033;44.660;37.758;2024-02-14T02:53:09;7.60;;;3.60;;
75984;SDS011;65033;44.660;37.758;2024-02-14T02:54:33;4.50;;;2.63;;
75984;SDS011;65033;44.660;37.758;2024-02-14T02:55:58;4.90;;;2.60;;
75984;SDS011;65033;44.660;37.758;2024-02-14T02:57:02;4.95;;;2.60;;
75984;SDS011;65033;44.660;37.758;2024-02-14T02:58:06;7.57;;;3.88;;
75984;SDS011;65033;44.660;37.758;2024-02-14T02:59:09;5.00;;;2.60;;
75984;SDS011;65033;44.660;37.758;2024-02-14T03:00:13;7.63;;;3.58;;
75984;SDS011;65033;44.660;37.758;2024-02-14T03:01:23;15.23;;;3.08;;
75984;SDS011;65033;44.660;37.758;2024-02-14T03:02:47;7.03;;;2.97;;
75984;SDS011;65033;44.660;37.758;2024-02-14T03:04:11;5.18;;;3.40;;
75984;SDS011;65033;44.660;37.758;2024-02-14T03:05:37;5.82;;;3.42;;
75984;SDS011;65033;44.660;37.758;2024-02-14T03:06:57;6.63;;;3.42;;
75984;SDS011;65033;44.660;37.758;2024-02-14T03:08:20;10.00;;;3.53;;
75984;SDS011;65033;44.660;37.758;2024-02-14T03:09:45;8.10;;;4.22;;
75984;SDS011;65033;44.660;37.758;2024-02-14T03:11:09;8.20;;;3.78;;
75984;SDS011;65033;44.660;37.758;2024-02-14T03:12:32;4.07;;;2.58;;
75984;SDS011;65033;44.660;37.758;2024-02-14T03:13:58;3.35;;;2.63;;
75984;SDS011;65033;44.660;37.758;2024-02-14T03:15:21;9.13;;;3.85;;
75984;SDS011;65033;44.660;37.758;2024-02-14T03:16:27;3.42;;;2.10;;
75984;SDS011;65033;44.660;37.758;2024-02-14T03:17:32;3.65;;;2.42;;
75984;SDS011;65033;44.660;37.758;2024-02-14T03:18:35;7.65;;;3.67;;
75984;SDS011;65033;44.660;37.758;2024-02-14T03:19:41;10.27;;;4.93;;
75984;SDS011;65033;44.660;37.758;2024-02-14T03:20:44;8.73;;;3.45;;
75984;SDS011;65033;44.660;37.758;2024-02-14T03:21:48;9.63;;;3.42;;
75984;SDS011;65033;44.660;37.758;2024-02-14T03:22:51;8.73;;;3.80;;
75984;SDS011;65033;44.660;37.758;2024-02-14T03:23:56;5.90;;;3.20;;
75984;SDS011;65033;44.660;37.758;2024-02-14T03:25:01;6.90;;;4.57;;
75984;SDS011;65033;44.660;37.758;2024-02-14T03:26:07;4.72;;;2.67;;
75984;SDS011;65033;44.660;37.758;2024-02-14T03:27:11;5.10;;;3.17;;
75984;SDS011;65033;44.660;37.758;2024-02-14T03:28:15;5.20;;;2.78;;
75984;SDS011;65033;44.660;37.758;2024-02-14T03:29:19;7.75;;;3.63;;
75984;SDS011;65033;44.660;37.758;2024-02-14T03:30:22;8.60;;;3.80;;
75984;SDS011;65033;44.660;37.758;2024-02-14T03:31:26;6.88;;;3.80;;
75984;SDS011;65033;44.660;37.758;2024-02-14T03:32:29;2.80;;;2.40;;
75984;SDS011;65033;44.660;37.758;2024-02-14T03:33:33;5.78;;;2.95;;
75984;SDS011;65033;44.660;37.758;2024-02-14T03:34:37;4.03;;;2.85;;
75984;SDS011;65033;44.660;37.758;2024-02-14T03:35:40;5.22;;;3.47;;
75984;SDS011;65033;44.660;37.758;2024-02-14T03:36:43;8.50;;;4.93;;
75984;SDS011;65033;44.660;37.758;2024-02-14T03:37:48;5.65;;;3.58;;
75984;SDS011;65033;44.660;37.758;2024-02-14T03:38:55;8.93;;;4.30;;
75984;SDS011;65033;44.660;37.758;2024-02-14T03:39:58;7.38;;;3.78;;
75984;SDS011;65033;44.660;37.758;2024-02-14T03:41:06;4.07;;;2.70;;
75984;SDS011;65033;44.660;37.758;2024-02-14T03:42:10;4.93;;;2.53;;
75984;SDS011;65033;44.660;37.758;2024-02-14T03:43:13;4.72;;;2.35;;
75984;SDS011;65033;44.660;37.758;2024-02-14T03:44:17;4.43;;;2.45;;
75984;SDS011;65033;44.660;37.758;2024-02-14T03:45:20;8.68;;;3.10;;
75984;SDS011;65033;44.660;37.758;2024-02-14T03:46:24;9.77;;;3.60;;
75984;SDS011;65033;44.660;37.758;2024-02-14T03:47:27;5.15;;;3.28;;
75984;SDS011;65033;44.660;37.758;2024-02-14T03:48:31;11.60;;;3.50;;
75984;SDS011;65033;44.660;37.758;2024-02-14T03:49:35;8.68;;;4.35;;
75984;SDS011;65033;44.660;37.758;2024-02-14T03:50:39;6.68;;;3.25;;
75984;SDS011;65033;44.660;37.758;2024-02-14T03:51:42;2.88;;;2.13;;
75984;SDS011;65033;44.660;37.758;2024-02-14T03:52:46;3.35;;;2.17;;
75984;SDS011;65033;44.660;37.758;2024-02-14T03:53:50;3.83;;;2.70;;
75984;SDS011;65033;44.660;37.758;2024-02-14T03:54:54;4.90;;;2.75;;
75984;SDS011;65033;44.660;37.758;2024-02-14T03:55:58;4.88;;;2.95;;
75984;SDS011;65033;44.660;37.758;2024-02-14T03:57:03;7.03;;;3.55;;
75984;SDS011;65033;44.660;37.758;2024-02-14T03:58:10;9.57;;;4.35;;
75984;SDS011;65033;44.660;37.758;2024-02-14T03:59:13;5.22;;;2.95;;
75984;SDS011;65033;44.660;37.758;2024-02-14T04:00:17;4.75;;;3.10;;
75984;SDS011;65033;44.660;37.758;2024-02-14T04:01:22;9.98;;;4.72;;
75984;SDS011;65033;44.660;37.758;2024-02-14T04:02:26;15.45;;;8.80;;
75984;SDS011;65033;44.660;37.758;2024-02-14T04:03:41;8.82;;;4.15;;
75984;SDS011;65033;44.660;37.758;2024-02-14T04:04:45;8.15;;;4.22;;
75984;SDS011;65033;44.660;37.758;2024-02-14T04:05:49;12.80;;;5.90;;
75984;SDS011;65033;44.660;37.758;2024-02-14T04:06:53;4.05;;;2.72;;
75984;SDS011;65033;44.660;37.758;2024-02-14T04:07:57;5.93;;;3.05;;
75984;SDS011;65033;44.660;37.758;2024-02-14T04:09:00;11.13;;;3.35;;
75984;SDS011;65033;44.660;37.758;2024-02-14T04:10:04;5.22;;;3.10;;
75984;SDS011;65033;44.660;37.758;2024-02-14T04:11:10;7.60;;;3.97;;
75984;SDS011;65033;44.660;37.758;2024-02-14T04:12:16;8.68;;;3.50;;
75984;SDS011;65033;44.660;37.758;2024-02-14T04:13:19;6.13;;;2.95;;
75984;SDS011;65033;44.660;37.758;2024-02-14T04:14:23;5.00;;;2.92;;
75984;SDS011;65033;44.660;37.758;2024-02-14T04:15:27;7.85;;;3.40;;
75984;SDS011;65033;44.660;37.758;2024-02-14T04:16:39;8.40;;;3.13;;
75984;SDS011;65033;44.660;37.758;2024-02-14T04:17:42;16.08;;;5.00;;
75984;SDS011;65033;44.660;37.758;2024-02-14T04:18:47;5.82;;;3.67;;
75984;SDS011;65033;44.660;37.758;2024-02-14T04:19:50;6.70;;;3.25;;
75984;SDS011;65033;44.660;37.758;2024-02-14T04:20:54;4.80;;;2.88;;
75984;SDS011;65033;44.660;37.758;2024-02-14T04:21:58;7.32;;;4.47;;
75984;SDS011;65033;44.660;37.758;2024-02-14T04:23:01;5.25;;;2.50;;
75984;SDS011;65033;44.660;37.758;2024-02-14T04:24:06;5.35;;;3.33;;
75984;SDS011;65033;44.660;37.758;2024-02-14T04:25:10;4.85;;;2.45;;
75984;SDS011;65033;44.660;37.758;2024-02-14T04:26:19;9.07;;;4.45;;
75984;SDS011;65033;44.660;37.758;2024-02-14T04:27:23;12.80;;;3.47;;
75984;SDS011;65033;44.660;37.758;2024-02-14T04:28:26;12.88;;;4.32;;
75984;SDS011;65033;44.660;37.758;2024-02-14T04:29:30;6.53;;;3.97;;
75984;SDS011;65033;44.660;37.758;2024-02-14T04:30:36;8.88;;;4.03;;
75984;SDS011;65033;44.660;37.758;2024-02-14T04:31:46;14.60;;;4.18;;
75984;SDS011;65033;44.660;37.758;2024-02-14T04:32:51;6.35;;;3.53;;
75984;SDS011;65033;44.660;37.758;2024-02-14T04:33:56;6.10;;;3.38;;
75984;SDS011;65033;44.660;37.758;2024-02-14T04:35:03;4.72;;;2.67;;
75984;SDS011;65033;44.660;37.758;2024-02-14T04:36:11;4.68;;;2.58;;
75984;SDS011;65033;44.660;37.758;2024-02-14T04:37:15;3.85;;;2.35;;
75984;SDS011;65033;44.660;37.758;2024-02-14T04:38:22;8.55;;;2.88;;
75984;SDS011;65033;44.660;37.758;2024-02-14T04:39:26;5.20;;;2.50;;
75984;SDS011;65033;44.660;37.758;2024-02-14T04:40:29;6.55;;;2.90;;
75984;SDS011;65033;44.660;37.758;2024-02-14T04:41:35;7.43;;;3.30;;
75984;SDS011;65033;44.660;37.758;2024-02-14T04:42:44;8.52;;;3.58;;
75984;SDS011;65033;44.660;37.758;2024-02-14T04:43:49;6.38;;;3.65;;
75984;SDS011;65033;44.660;37.758;2024-02-14T04:44:52;10.10;;;4.20;;
75984;SDS011;65033;44.660;37.758;2024-02-14T04:45:56;14.00;;;6.00;;
75984;SDS011;65033;44.660;37.758;2024-02-14T04:46:59;11.45;;;5.75;;
75984;SDS011;65033;44.660;37.758;2024-02-14T04:48:04;12.23;;;3.92;;
75984;SDS011;65033;44.660;37.758;2024-02-14T04:49:09;7.07;;;3.92;;
75984;SDS011;65033;44.660;37.758;2024-02-14T04:50:13;11.30;;;3.88;;
75984;SDS011;65033;44.660;37.758;2024-02-14T04:51:17;17.10;;;4.82;;
75984;SDS011;65033;44.660;37.758;2024-02-14T04:52:20;18.48;;;6.57;;
75984;SDS011;65033;44.660;37.758;2024-02-14T04:53:24;25.92;;;7.30;;
75984;SDS011;65033;44.660;37.758;2024-02-14T04:54:27;16.65;;;5.20;;
75984;SDS011;65033;44.660;37.758;2024-02-14T04:55:31;26.02;;;4.85;;
75984;SDS011;65033;44.660;37.758;2024-02-14T04:56:40;11.45;;;3.60;;
75984;SDS011;65033;44.660;37.758;2024-02-14T04:57:46;14.43;;;4.20;;
75984;SDS011;65033;44.660;37.758;2024-02-14T04:58:53;11.73;;;3.95;;
75984;SDS011;65033;44.660;37.758;2024-02-14T04:59:57;11.35;;;3.95;;
75984;SDS011;65033;44.660;37.758;2024-02-14T05:01:01;13.10;;;4.57;;
75984;SDS011;65033;44.660;37.758;2024-02-14T05:02:07;6.80;;;3.30;;
75984;SDS011;65033;44.660;37.758;2024-02-14T05:03:10;6.43;;;4.00;;
75984;SDS011;65033;44.660;37.758;2024-02-14T05:04:15;29.08;;;6.50;;
75984;SDS011;65033;44.660;37.758;2024-02-14T05:05:19;11.35;;;4.57;;
75984;SDS011;65033;44.660;37.758;2024-02-14T05:06:29;11.77;;;5.10;;
75984;SDS011;65033;44.660;37.758;2024-02-14T05:07:32;19.38;;;5.63;;
75984;SDS011;65033;44.660;37.758;2024-02-14T05:08:36;11.30;;;5.70;;
75984;SDS011;65033;44.660;37.758;2024-02-14T05:09:40;13.00;;;5.90;;
75984;SDS011;65033;44.660;37.758;2024-02-14T05:10:44;11.80;;;4.95;;
75984;SDS011;65033;44.660;37.758;2024-02-14T05:11:49;9.07;;;3.10;;
75984;SDS011;65033;44.660;37.758;2024-02-14T05:12:53;5.43;;;3.20;;
75984;SDS011;65033;44.660;37.758;2024-02-14T05:13:57;11.95;;;3.05;;
75984;SDS011;65033;44.660;37.758;2024-02-14T05:15:04;10.65;;;4.30;;
75984;SDS011;65033;44.660;37.758;2024-02-14T05:16:10;19.13;;;5.95;;
75984;SDS011;65033;44.660;37.758;2024-02-14T05:17:13;5.03;;;3.22;;
75984;SDS011;65033;44.660;37.758;2024-02-14T05:18:17;21.23;;;6.13;;
75984;SDS011;65033;44.660;37.758;2024-02-14T05:19:21;21.65;;;7.03;;
75984;SDS011;65033;44.660;37.758;2024-02-14T05:20:25;9.98;;;5.32;;
75984;SDS011;65033;44.660;37.758;2024-02-14T05:21:28;17.27;;;6.22;;
75984;SDS011;65033;44.660;37.758;2024-02-14T05:22:32;17.30;;;6.32;;
75984;SDS011;65033;44.660;37.758;2024-02-14T05:23:35;22.33;;;6.68;;
75984;SDS011;65033;44.660;37.758;2024-02-14T05:24:39;19.70;;;5.38;;
75984;SDS011;65033;44.660;37.758;2024-02-14T05:25:42;24.02;;;5.40;;
75984;SDS011;65033;44.660;37.758;2024-02-14T05:26:47;20.90;;;6.35;;
75984;SDS011;65033;44.660;37.758;2024-02-14T05:27:53;19.90;;;5.93;;
75984;SDS011;65033;44.660;37.758;2024-02-14T05:28:57;17.83;;;5.18;;
75984;SDS011;65033;44.660;37.758;2024-02-14T05:30:01;11.50;;;4.25;;
75984;SDS011;65033;44.660;37.758;2024-02-14T05:31:11;14.23;;;4.97;;
75984;SDS011;65033;44.660;37.758;2024-02-14T05:32:16;16.13;;;4.47;;
75984;SDS011;65033;44.660;37.758;2024-02-14T05:33:20;16.50;;;4.93;;
75984;SDS011;65033;44.660;37.758;2024-02-14T05:34:25;14.32;;;6.30;;
75984;SDS011;65033;44.660;37.758;2024-02-14T05:35:29;5.55;;;3.63;;
75984;SDS011;65033;44.660;37.758;2024-02-14T05:36:32;16.40;;;6.93;;
75984;SDS011;65033;44.660;37.758;2024-02-14T05:37:36;11.68;;;5.60;;
75984;SDS011;65033;44.660;37.758;2024-02-14T05:38:40;9.35;;;4.78;;
75984;SDS011;65033;44.660;37.758;2024-02-14T05:39:44;7.03;;;4.40;;
75984;SDS011;65033;44.660;37.758;2024-02-14T05:40:47;11.73;;;6.15;;
75984;SDS011;65033;44.660;37.758;2024-02-14T05:41:53;12.95;;;4.93;;
75984;SDS011;65033;44.660;37.758;2024-02-14T05:43:00;13.57;;;7.07;;
75984;SDS011;65033;44.660;37.758;2024-02-14T05:44:07;15.13;;;6.38;;
75984;SDS011;65033;44.660;37.758;2024-02-14T05:45:11;10.30;;;4.75;;
75984;SDS011;65033;44.660;37.758;2024-02-14T05:46:16;12.18;;;4.90;;
75984;SDS011;65033;44.660;37.758;2024-02-14T05:47:20;6.43;;;4.07;;
75984;SDS011;65033;44.660;37.758;2024-02-14T05:48:24;12.95;;;5.55;;
75984;SDS011;65033;44.660;37.758;2024-02-14T05:49:28;8.30;;;4.38;;
75984;SDS011;65033;44.660;37.758;2024-02-14T05:50:32;10.02;;;4.15;;
75984;SDS011;65033;44.660;37.758;2024-02-14T05:51:37;21.65;;;4.75;;
75984;SDS011;65033;44.660;37.758;2024-02-14T05:52:41;9.85;;;4.07;;
75984;SDS011;65033;44.660;37.758;2024-02-14T05:53:45;12.77;;;5.10;;
75984;SDS011;65033;44.660;37.758;2024-02-14T05:54:48;5.95;;;3.30;;
75984;SDS011;65033;44.660;37.758;2024-02-14T05:55:52;9.57;;;4.22;;
75984;SDS011;65033;44.660;37.758;2024-02-14T05:56:55;11.52;;;4.28;;
75984;SDS011;65033;44.660;37.758;2024-02-14T05:58:01;12.50;;;4.00;;
75984;SDS011;65033;44.660;37.758;2024-02-14T05:59:05;8.90;;;4.00;;
75984;SDS011;65033;44.660;37.758;2024-02-14T06:00:09;9.02;;;3.97;;
75984;SDS011;65033;44.660;37.758;2024-02-14T06:01:15;8.77;;;4.40;;
75984;SDS011;65033;44.660;37.758;2024-02-14T06:02:20;4.97;;;3.17;;
75984;SDS011;65033;44.660;37.758;2024-02-14T06:03:24;10.88;;;4.10;;
75984;SDS011;65033;44.660;37.758;2024-02-14T06:04:28;9.13;;;5.43;;
75984;SDS011;65033;44.660;37.758;2024-02-14T06:05:31;7.47;;;5.13;;
75984;SDS011;65033;44.660;37.758;2024-02-14T06:06:35;7.65;;;3.38;;
75984;SDS011;65033;44.660;37.758;2024-02-14T06:07:38;22.58;;;6.25;;
75984;SDS011;65033;44.660;37.758;2024-02-14T06:08:47;16.45;;;4.55;;
75984;SDS011;65033;44.660;37.758;2024-02-14T06:09:57;12.30;;;5.53;;
75984;SDS011;65033;44.660;37.758;2024-02-14T06:11:01;14.65;;;5.22;;
75984;SDS011;65033;44.660;37.758;2024-02-14T06:12:06;12.02;;;5.32;;
75984;SDS011;65033;44.660;37.758;2024-02-14T06:13:12;13.68;;;5.80;;
75984;SDS011;65033;44.660;37.758;2024-02-14T06:14:15;10.73;;;5.50;;
75984;SDS011;65033;44.660;37.758;2024-02-14T06:15:19;10.02;;;5.28;;
75984;SDS011;65033;44.660;37.758;2024-02-14T06:16:22;10.43;;;4.65;;
75984;SDS011;65033;44.660;37.758;2024-02-14T06:19:24;9.73;;;5.00;;
75984;SDS011;65033;44.660;37.758;2024-02-14T06:21:51;9.25;;;4.07;;
75984;SDS011;65033;44.660;37.758;2024-02-14T06:23:03;32.70;;;4.82;;
75984;SDS011;65033;44.660;37.758;2024-02-14T06:24:20;6.72;;;3.42;;
75984;SDS011;65033;44.660;37.758;2024-02-14T06:25:29;14.32;;;4.18;;
75984;SDS011;65033;44.660;37.758;2024-02-14T06:26:47;11.73;;;4.15;;
75984;SDS011;65033;44.660;37.758;2024-02-14T06:28:15;12.80;;;6.93;;
75984;SDS011;65033;44.660;37.758;2024-02-14T06:29:19;16.38;;;7.22;;
75984;SDS011;65033;44.660;37.758;2024-02-14T06:30:32;10.98;;;4.40;;
75984;SDS011;65033;44.660;37.758;2024-02-14T06:31:38;9.18;;;4.18;;
75984;SDS011;65033;44.660;37.758;2024-02-14T06:32:50;8.40;;;4.10;;
75984;SDS011;65033;44.660;37.758;2024-02-14T06:34:03;9.95;;;3.63;;
75984;SDS011;65033;44.660;37.758;2024-02-14T06:35:10;19.67;;;5.05;;
75984;SDS011;65033;44.660;37.758;2024-02-14T06:36:19;23.30;;;6.93;;
75984;SDS011;65033;44.660;37.758;2024-02-14T06:37:26;15.85;;;6.53;;
75984;SDS011;65033;44.660;37.758;2024-02-14T06:38:33;17.70;;;6.68;;